地図

経路データ

SID SEASON NUMBER BASIN SUBBASIN NAME ISO_TIME NATURE LAT LON WMO_WIND WMO_PRES WMO_AGENCY TRACK_TYPE DIST2LAND LANDFALL IFLAG USA_AGENCY USA_ATCF_ID USA_LAT USA_LON USA_RECORD USA_STATUS USA_WIND USA_PRES USA_SSHS USA_R34_NE USA_R34_SE USA_R34_SW USA_R34_NW USA_R50_NE USA_R50_SE USA_R50_SW USA_R50_NW USA_R64_NE USA_R64_SE USA_R64_SW USA_R64_NW USA_POCI USA_ROCI USA_RMW USA_EYE TOKYO_LAT TOKYO_LON TOKYO_GRADE TOKYO_WIND TOKYO_PRES TOKYO_R50_DIR TOKYO_R50_LONG TOKYO_R50_SHORT TOKYO_R30_DIR TOKYO_R30_LONG TOKYO_R30_SHORT TOKYO_LAND CMA_LAT CMA_LON CMA_CAT CMA_WIND CMA_PRES HKO_LAT HKO_LON HKO_CAT HKO_WIND HKO_PRES NEWDELHI_LAT NEWDELHI_LON NEWDELHI_GRADE NEWDELHI_WIND NEWDELHI_PRES NEWDELHI_CI NEWDELHI_DP NEWDELHI_POCI REUNION_LAT REUNION_LON REUNION_TYPE REUNION_WIND REUNION_PRES REUNION_TNUM REUNION_CI REUNION_RMW REUNION_R34_NE REUNION_R34_SE REUNION_R34_SW REUNION_R34_NW REUNION_R50_NE REUNION_R50_SE REUNION_R50_SW REUNION_R50_NW REUNION_R64_NE REUNION_R64_SE REUNION_R64_SW REUNION_R64_NW BOM_LAT BOM_LON BOM_TYPE BOM_WIND BOM_PRES BOM_TNUM BOM_CI BOM_RMW BOM_R34_NE BOM_R34_SE BOM_R34_SW BOM_R34_NW BOM_R50_NE BOM_R50_SE BOM_R50_SW BOM_R50_NW BOM_R64_NE BOM_R64_SE BOM_R64_SW BOM_R64_NW BOM_ROCI BOM_POCI BOM_EYE BOM_POS_METHOD BOM_PRES_METHOD NADI_LAT NADI_LON NADI_CAT NADI_WIND NADI_PRES WELLINGTON_LAT WELLINGTON_LON WELLINGTON_WIND WELLINGTON_PRES DS824_LAT DS824_LON DS824_STAGE DS824_WIND DS824_PRES TD9636_LAT TD9636_LON TD9636_STAGE TD9636_WIND TD9636_PRES TD9635_LAT TD9635_LON TD9635_WIND TD9635_PRES TD9635_ROCI NEUMANN_LAT NEUMANN_LON NEUMANN_CLASS NEUMANN_WIND NEUMANN_PRES MLC_LAT MLC_LON MLC_CLASS MLC_WIND MLC_PRES USA_GUST BOM_GUST BOM_GUST_PER REUNION_GUST REUNION_GUST_PER USA_SEAHGT USA_SEARAD_NE USA_SEARAD_SE USA_SEARAD_SW USA_SEARAD_NW STORM_SPEED STORM_DIR
1920092S11422 1920 11 SI MM NOT_NAMED 1920-03-31 18:00:00 NR -11.0000 61.5000 main 1096 1021 __________O___ -1 -11.0000 61.5000 7 17 229
1920092S11422 1920 11 SI MM NOT_NAMED 1920-03-31 21:00:00 NR -11.5482 60.8665 main 1021 948 __________P___ -1 -11.5482 60.8665 7 16 229
1920092S11422 1920 11 SI MM NOT_NAMED 1920-04-01 00:00:00 NR -12.0766 60.2551 main 937 876 __________P___ -1 -12.0766 60.2551 7 15 228
1920092S11422 1920 11 SI MM NOT_NAMED 1920-04-01 03:00:00 NR -12.5666 59.6912 main 866 810 __________P___ -1 -12.5666 59.6912 7 14 228
1920092S11422 1920 11 SI MM NOT_NAMED 1920-04-01 06:00:00 NR -13.0000 59.2000 main 810 769 __________O___ -1 -13.0000 59.2000 7 12 227
1920092S11422 1920 11 SI MM NOT_NAMED 1920-04-01 09:00:00 NR -13.3650 58.7997 main 758 721 __________P___ -1 -13.3650 58.7997 7 10 226
1920092S11422 1920 11 SI MM NOT_NAMED 1920-04-01 12:00:00 NR -13.6742 58.4790 main 721 695 __________P___ -1 -13.6742 58.4790 7 8 224
1920092S11422 1920 11 SI MM NOT_NAMED 1920-04-01 15:00:00 NR -13.9464 58.2188 main 695 660 __________P___ -1 -13.9464 58.2188 7 7 222
1920092S11422 1920 11 SI MM NOT_NAMED 1920-04-01 18:00:00 NR -14.2000 58.0000 main 660 637 __________O___ -1 -14.2000 58.0000 7 7 225
1920092S11422 1920 11 SI MM NOT_NAMED 1920-04-01 21:00:00 NR -14.4317 57.7083 main 637 615 __________P___ -1 -14.4317 57.7083 7 7 229
1920092S11422 1920 11 SI MM NOT_NAMED 1920-04-02 00:00:00 NR -14.6547 57.4634 main 604 582 __________P___ -1 -14.6547 57.4634 7 6 219
1920092S11422 1920 11 SI MM NOT_NAMED 1920-04-02 03:00:00 NR -14.9003 57.3119 main 582 548 __________P___ -1 -14.9003 57.3119 7 6 196
1920092S11422 1920 11 SI MM NOT_NAMED 1920-04-02 06:00:00 NR -15.2000 57.3000 main 548 503 __________O___ -1 -15.2000 57.3000 7 8 167
1920092S11422 1920 11 SI MM NOT_NAMED 1920-04-02 09:00:00 NR -15.6293 57.4839 main 503 447 __________P___ -1 -15.6293 57.4839 7 10 152
1920092S11422 1920 11 SI MM NOT_NAMED 1920-04-02 12:00:00 NR -16.1080 57.8054 main 447 395 __________P___ -1 -16.1080 57.8054 7 12 144
1920092S11422 1920 11 SI MM NOT_NAMED 1920-04-02 15:00:00 NR -16.5826 58.1995 main 395 359 __________P___ -1 -16.5826 58.1995 7 12 140
1920092S11422 1920 11 SI MM NOT_NAMED 1920-04-02 18:00:00 NR -17.0000 58.6000 main 359 337 __________O___ -1 -17.0000 58.6000 7 10 136
1920092S11422 1920 11 SI MM NOT_NAMED 1920-04-02 21:00:00 NR -17.3018 58.9199 main 337 326 __________P___ -1 -17.3018 58.9199 7 8 132
1920092S11422 1920 11 SI MM NOT_NAMED 1920-04-03 00:00:00 NR -17.5399 59.2306 main 330 321 __________P___ -1 -17.5399 59.2306 7 7 127
1920092S11422 1920 11 SI MM NOT_NAMED 1920-04-03 03:00:00 NR -17.7331 59.5260 main 328 323 __________P___ -1 -17.7331 59.5260 7 7 124
1920092S11422 1920 11 SI MM NOT_NAMED 1920-04-03 06:00:00 NR -17.9000 59.8000 main 330 329 __________O___ -1 -17.9000 59.8000 7 6 125
1920092S11422 1920 11 SI MM NOT_NAMED 1920-04-03 09:00:00 NR -18.0754 60.0429 main 329 329 __________P___ -1 -18.0754 60.0429 7 6 127
1920092S11422 1920 11 SI MM NOT_NAMED 1920-04-03 12:00:00 NR -18.2297 60.2654 main 346 339 __________P___ -1 -18.2297 60.2654 7 5 125
1920092S11422 1920 11 SI MM NOT_NAMED 1920-04-03 15:00:00 NR -18.3691 60.4803 main 350 350 __________P___ -1 -18.3691 60.4803 7 5 123
1920092S11422 1920 11 SI MM NOT_NAMED 1920-04-03 18:00:00 NR -18.5000 60.7000 main 362 362 __________O___ -1 -18.5000 60.7000 7 5 122
1920092S11422 1920 11 SI MM NOT_NAMED 1920-04-03 21:00:00 NR -18.6279 60.9228 main 375 375 __________P___ -1 -18.6279 60.9228 7 5 120
1920092S11422 1920 11 SI MM NOT_NAMED 1920-04-04 00:00:00 NR -18.7496 61.1555 main 398 393 __________P___ -1 -18.7496 61.1555 7 5 118
1920092S11422 1920 11 SI MM NOT_NAMED 1920-04-04 03:00:00 NR -18.8715 61.4104 main 408 408 __________P___ -1 -18.8715 61.4104 7 6 116
1920092S11422 1920 11 SI MM NOT_NAMED 1920-04-04 06:00:00 NR -19.0000 61.7000 main 433 433 __________O___ -1 -19.0000 61.7000 7 7 114
1920092S11422 1920 11 SI MM NOT_NAMED 1920-04-04 09:00:00 NR -19.1389 62.0432 main 459 459 __________P___ -1 -19.1389 62.0432 7 7 113
1920092S11422 1920 11 SI MM NOT_NAMED 1920-04-04 12:00:00 NR -19.2852 62.4201 main 494 494 __________P___ -1 -19.2852 62.4201 7 8 112
1920092S11422 1920 11 SI MM NOT_NAMED 1920-04-04 15:00:00 NR -19.4389 62.8120 main 532 532 __________P___ -1 -19.4389 62.8120 7 8 113
1920092S11422 1920 11 SI MM NOT_NAMED 1920-04-04 18:00:00 NR -19.6000 63.2000 main 569 569 __________O___ -1 -19.6000 63.2000 7 7 115
1920092S11422 1920 11 SI MM NOT_NAMED 1920-04-04 21:00:00 NR -19.7548 63.5254 main 597 597 __________P___ -1 -19.7548 63.5254 7 7 118
1920092S11422 1920 11 SI MM NOT_NAMED 1920-04-05 00:00:00 NR -19.9188 63.8487 main 628 628 __________P___ -1 -19.9188 63.8487 7 7 119
1920092S11422 1920 11 SI MM NOT_NAMED 1920-04-05 03:00:00 NR -20.0984 64.1975 main 668 668 __________P___ -1 -20.0984 64.1975 7 8 118
1920092S11422 1920 11 SI MM NOT_NAMED 1920-04-05 06:00:00 NR -20.3000 64.6000 main 709 709 __________O___ -1 -20.3000 64.6000 7 9 117
1920092S11422 1920 11 SI MM NOT_NAMED 1920-04-05 09:00:00 NR -20.5328 65.0963 main 760 760 __________P___ -1 -20.5328 65.0963 7 11 116
1920092S11422 1920 11 SI MM NOT_NAMED 1920-04-05 12:00:00 NR -20.7855 65.6471 main 813 813 __________P___ -1 -20.7855 65.6471 7 12 116
1920092S11422 1920 11 SI MM NOT_NAMED 1920-04-05 15:00:00 NR -21.0453 66.2245 main 877 877 __________P___ -1 -21.0453 66.2245 7 12 116
1920092S11422 1920 11 SI MM NOT_NAMED 1920-04-05 18:00:00 NR -21.3000 66.8000 main 941 941 __________O___ -1 -21.3000 66.8000 7 12 115
1920092S11422 1920 11 SI MM NOT_NAMED 1920-04-05 21:00:00 NR -21.5399 67.3406 main 995 995 __________P___ -1 -21.5399 67.3406 7 11 115
1920092S11422 1920 11 SI MM NOT_NAMED 1920-04-06 00:00:00 NR -21.7720 67.8729 main 1061 1061 __________P___ -1 -21.7720 67.8729 7 11 115
1920092S11422 1920 11 SI MM NOT_NAMED 1920-04-06 03:00:00 NR -21.9931 68.3937 main 1115 1115 __________P___ -1 -21.9931 68.3937 7 10 114
1920092S11422 1920 11 SI MM NOT_NAMED 1920-04-06 06:00:00 NR -22.2000 68.9000 main 1169 1169 __________O___ -1 -22.2000 68.9000 7 10 113
1920092S11422 1920 11 SI MM NOT_NAMED 1920-04-06 09:00:00 NR -22.3931 69.4060 main 1223 1223 __________P___ -1 -22.3931 69.4060 7 10 112
1920092S11422 1920 11 SI MM NOT_NAMED 1920-04-06 12:00:00 NR -22.5721 69.8955 main 1277 1277 __________P___ -1 -22.5721 69.8955 7 9 111
1920092S11422 1920 11 SI MM NOT_NAMED 1920-04-06 15:00:00 NR -22.7401 70.3622 main 1330 1330 __________P___ -1 -22.7401 70.3622 7 9 111
1920092S11422 1920 11 SI MM NOT_NAMED 1920-04-06 18:00:00 NR -22.9000 70.8000 main 1374 1374 __________O___ -1 -22.9000 70.8000 7 8 112
1920092S11422 1920 11 SI MM NOT_NAMED 1920-04-06 21:00:00 NR -23.0481 71.1843 main 1416 1416 __________P___ -1 -23.0481 71.1843 7 7 113
1920092S11422 1920 11 SI MM NOT_NAMED 1920-04-07 00:00:00 NR -23.1911 71.5438 main 1450 1450 __________P___ -1 -23.1911 71.5438 7 7 114
1920092S11422 1920 11 SI MM NOT_NAMED 1920-04-07 03:00:00 NR -23.3386 71.9063 main 1492 1492 __________P___ -1 -23.3386 71.9063 7 8 114
1920092S11422 1920 11 SI MM NOT_NAMED 1920-04-07 06:00:00 NR -23.5000 72.3000 main 1536 1536 __________O___ -1 -23.5000 72.3000 7 9 114
1920092S11422 1920 11 SI MM NOT_NAMED 1920-04-07 09:00:00 NR -23.6941 72.7799 main 1591 1591 __________P___ -1 -23.6941 72.7799 7 10 114
1920092S11422 1920 11 SI MM NOT_NAMED 1920-04-07 12:00:00 NR -23.9006 73.2919 main 1645 1645 __________P___ -1 -23.9006 73.2919 7 10 114
1920092S11422 1920 11 SI MM NOT_NAMED 1920-04-07 15:00:00 NR -24.1066 73.8081 main 1699 1699 __________P___ -1 -24.1066 73.8081 7 10 113
1920092S11422 1920 11 SI MM NOT_NAMED 1920-04-07 18:00:00 NR -24.3000 74.3000 main 1753 1753 __________O___ -1 -24.3000 74.3000 7 9 113
1920092S11422 1920 11 SI MM NOT_NAMED 1920-04-07 21:00:00 NR -24.4717 74.7461 main 1797 1797 __________P___ -1 -24.4717 74.7461 7 8 113
1920092S11422 1920 11 SI MM NOT_NAMED 1920-04-08 00:00:00 NR -24.6250 75.1525 main 1849 1849 __________P___ -1 -24.6250 75.1525 7 8 112
1920092S11422 1920 11 SI MM NOT_NAMED 1920-04-08 03:00:00 NR -24.7658 75.5327 main 1883 1883 __________P___ -1 -24.7658 75.5327 7 7 112
1920092S11422 1920 11 SI MM NOT_NAMED 1920-04-08 06:00:00 NR -24.9000 75.9000 main 1925 __________O___ -1 -24.9000 75.9000 7 7 112

IBTrACS Databaseについて

本データベースは、米国NOAAが公開する1842年以降の世界の熱帯低気圧のベストトラックデータアーカイブInternational Best Track Archive for Climate Stewardship (IBTrACS)を、ウェブで閲覧しやすい形式に変換したものです。

最終更新日:2021-10-08